sensor_id;sensor_type;location;lat;lon;timestamp;temperature;humidity
4896;DHT22;2463;49.948;8.472;2024-02-14T00:02:22;7.20;99.90
4896;DHT22;2463;49.948;8.472;2024-02-14T00:04:49;7.30;99.90
4896;DHT22;2463;49.948;8.472;2024-02-14T00:07:16;7.20;99.90
4896;DHT22;2463;49.948;8.472;2024-02-14T00:09:42;7.20;99.90
4896;DHT22;2463;49.948;8.472;2024-02-14T00:12:09;7.30;99.90
4896;DHT22;2463;49.948;8.472;2024-02-14T00:14:38;7.30;99.90
4896;DHT22;2463;49.948;8.472;2024-02-14T00:17:05;7.30;99.90
4896;DHT22;2463;49.948;8.472;2024-02-14T00:19:32;7.20;99.90
4896;DHT22;2463;49.948;8.472;2024-02-14T00:21:59;7.20;99.90
4896;DHT22;2463;49.948;8.472;2024-02-14T00:24:26;7.10;99.90
4896;DHT22;2463;49.948;8.472;2024-02-14T00:26:55;7.10;99.90
4896;DHT22;2463;49.948;8.472;2024-02-14T00:29:23;7.00;99.90
4896;DHT22;2463;49.948;8.472;2024-02-14T00:31:50;7.00;99.90
4896;DHT22;2463;49.948;8.472;2024-02-14T00:34:17;7.10;99.90
4896;DHT22;2463;49.948;8.472;2024-02-14T00:36:44;7.10;99.90
4896;DHT22;2463;49.948;8.472;2024-02-14T00:39:10;7.10;99.90
4896;DHT22;2463;49.948;8.472;2024-02-14T00:41:37;7.00;99.90
4896;DHT22;2463;49.948;8.472;2024-02-14T00:44:04;7.10;99.90
4896;DHT22;2463;49.948;8.472;2024-02-14T00:46:31;7.10;99.90
4896;DHT22;2463;49.948;8.472;2024-02-14T00:48:58;7.10;99.90
4896;DHT22;2463;49.948;8.472;2024-02-14T00:51:26;7.10;99.90
4896;DHT22;2463;49.948;8.472;2024-02-14T00:53:52;7.10;99.90
4896;DHT22;2463;49.948;8.472;2024-02-14T00:56:19;7.20;99.90
4896;DHT22;2463;49.948;8.472;2024-02-14T00:58:46;7.20;99.90
4896;DHT22;2463;49.948;8.472;2024-02-14T01:01:12;7.20;99.90
4896;DHT22;2463;49.948;8.472;2024-02-14T01:03:39;7.30;99.90
4896;DHT22;2463;49.948;8.472;2024-02-14T01:06:06;7.30;99.90
4896;DHT22;2463;49.948;8.472;2024-02-14T01:08:33;7.30;99.90
4896;DHT22;2463;49.948;8.472;2024-02-14T01:11:00;7.30;99.90
4896;DHT22;2463;49.948;8.472;2024-02-14T01:13:27;7.40;99.90
4896;DHT22;2463;49.948;8.472;2024-02-14T01:15:54;7.40;99.90
4896;DHT22;2463;49.948;8.472;2024-02-14T01:18:20;7.40;99.90
4896;DHT22;2463;49.948;8.472;2024-02-14T01:20:47;7.40;99.90
4896;DHT22;2463;49.948;8.472;2024-02-14T01:23:14;7.40;99.90
4896;DHT22;2463;49.948;8.472;2024-02-14T01:25:40;7.40;99.90
4896;DHT22;2463;49.948;8.472;2024-02-14T01:28:09;7.40;99.90
4896;DHT22;2463;49.948;8.472;2024-02-14T01:30:35;7.40;99.90
4896;DHT22;2463;49.948;8.472;2024-02-14T01:33:02;7.30;99.90
4896;DHT22;2463;49.948;8.472;2024-02-14T01:35:32;7.30;99.90
4896;DHT22;2463;49.948;8.472;2024-02-14T01:37:59;7.30;99.90
4896;DHT22;2463;49.948;8.472;2024-02-14T01:40:25;7.40;99.90
4896;DHT22;2463;49.948;8.472;2024-02-14T01:42:52;7.40;99.90
4896;DHT22;2463;49.948;8.472;2024-02-14T01:45:19;7.40;99.90
4896;DHT22;2463;49.948;8.472;2024-02-14T01:47:46;7.50;99.90
4896;DHT22;2463;49.948;8.472;2024-02-14T01:50:13;7.50;99.90
4896;DHT22;2463;49.948;8.472;2024-02-14T01:52:40;7.40;99.90
4896;DHT22;2463;49.948;8.472;2024-02-14T01:55:08;7.40;99.90
4896;DHT22;2463;49.948;8.472;2024-02-14T01:57:35;7.30;99.90
4896;DHT22;2463;49.948;8.472;2024-02-14T02:00:04;7.30;99.90
4896;DHT22;2463;49.948;8.472;2024-02-14T02:02:35;7.30;99.90
4896;DHT22;2463;49.948;8.472;2024-02-14T02:05:04;7.30;99.90
4896;DHT22;2463;49.948;8.472;2024-02-14T02:07:32;7.30;99.90
4896;DHT22;2463;49.948;8.472;2024-02-14T02:09:59;7.30;99.90
4896;DHT22;2463;49.948;8.472;2024-02-14T02:12:26;7.20;99.90
4896;DHT22;2463;49.948;8.472;2024-02-14T02:14:54;7.20;99.90
4896;DHT22;2463;49.948;8.472;2024-02-14T02:17:21;7.20;99.90
4896;DHT22;2463;49.948;8.472;2024-02-14T02:19:47;7.10;99.90
4896;DHT22;2463;49.948;8.472;2024-02-14T02:22:14;7.10;99.90
4896;DHT22;2463;49.948;8.472;2024-02-14T02:24:41;7.10;99.90
4896;DHT22;2463;49.948;8.472;2024-02-14T02:27:08;7.10;99.90
4896;DHT22;2463;49.948;8.472;2024-02-14T02:29:34;7.10;99.90
4896;DHT22;2463;49.948;8.472;2024-02-14T02:32:01;7.10;99.90
4896;DHT22;2463;49.948;8.472;2024-02-14T02:34:28;7.10;99.90
4896;DHT22;2463;49.948;8.472;2024-02-14T02:36:55;7.30;99.90
4896;DHT22;2463;49.948;8.472;2024-02-14T02:39:23;7.20;99.90
4896;DHT22;2463;49.948;8.472;2024-02-14T02:41:50;7.30;99.90
4896;DHT22;2463;49.948;8.472;2024-02-14T02:44:17;7.30;99.90
4896;DHT22;2463;49.948;8.472;2024-02-14T02:46:44;7.30;99.90
4896;DHT22;2463;49.948;8.472;2024-02-14T02:49:12;7.40;99.90
4896;DHT22;2463;49.948;8.472;2024-02-14T02:51:40;7.30;99.90
4896;DHT22;2463;49.948;8.472;2024-02-14T02:54:07;7.30;99.90
4896;DHT22;2463;49.948;8.472;2024-02-14T02:56:35;7.40;99.90
4896;DHT22;2463;49.948;8.472;2024-02-14T02:59:01;7.30;99.90
4896;DHT22;2463;49.948;8.472;2024-02-14T03:01:35;7.40;99.90
4896;DHT22;2463;49.948;8.472;2024-02-14T03:04:02;7.30;99.90
4896;DHT22;2463;49.948;8.472;2024-02-14T03:06:30;7.40;99.90
4896;DHT22;2463;49.948;8.472;2024-02-14T03:08:57;7.40;99.90
4896;DHT22;2463;49.948;8.472;2024-02-14T03:11:24;7.40;99.90
4896;DHT22;2463;49.948;8.472;2024-02-14T03:13:53;7.40;99.90
4896;DHT22;2463;49.948;8.472;2024-02-14T03:16:19;7.40;99.90
4896;DHT22;2463;49.948;8.472;2024-02-14T03:18:46;7.40;99.90
4896;DHT22;2463;49.948;8.472;2024-02-14T03:21:13;7.40;99.90
4896;DHT22;2463;49.948;8.472;2024-02-14T03:23:40;7.40;99.90
4896;DHT22;2463;49.948;8.472;2024-02-14T03:26:07;7.40;99.90
4896;DHT22;2463;49.948;8.472;2024-02-14T03:28:35;7.40;99.90
4896;DHT22;2463;49.948;8.472;2024-02-14T03:31:02;7.40;99.90
4896;DHT22;2463;49.948;8.472;2024-02-14T03:33:29;7.40;99.90
4896;DHT22;2463;49.948;8.472;2024-02-14T03:35:56;7.40;99.90
4896;DHT22;2463;49.948;8.472;2024-02-14T03:38:27;7.40;99.90
4896;DHT22;2463;49.948;8.472;2024-02-14T03:40:54;7.40;99.90
4896;DHT22;2463;49.948;8.472;2024-02-14T03:43:21;7.40;99.90
4896;DHT22;2463;49.948;8.472;2024-02-14T03:45:50;7.40;99.90
4896;DHT22;2463;49.948;8.472;2024-02-14T03:48:18;7.40;99.90
4896;DHT22;2463;49.948;8.472;2024-02-14T03:50:44;7.40;99.90
4896;DHT22;2463;49.948;8.472;2024-02-14T03:53:11;7.40;99.90
4896;DHT22;2463;49.948;8.472;2024-02-14T03:55:38;7.50;99.90
4896;DHT22;2463;49.948;8.472;2024-02-14T03:58:04;7.50;99.90
4896;DHT22;2463;49.948;8.472;2024-02-14T04:00:32;7.50;99.90
4896;DHT22;2463;49.948;8.472;2024-02-14T04:03:01;7.50;99.90
4896;DHT22;2463;49.948;8.472;2024-02-14T04:05:29;7.50;99.90
4896;DHT22;2463;49.948;8.472;2024-02-14T04:07:56;7.50;99.90
4896;DHT22;2463;49.948;8.472;2024-02-14T04:10:22;7.50;99.90
4896;DHT22;2463;49.948;8.472;2024-02-14T04:12:50;7.60;99.90
4896;DHT22;2463;49.948;8.472;2024-02-14T04:15:16;7.50;99.90
4896;DHT22;2463;49.948;8.472;2024-02-14T04:17:43;7.60;99.90
4896;DHT22;2463;49.948;8.472;2024-02-14T04:20:10;7.60;99.90
4896;DHT22;2463;49.948;8.472;2024-02-14T04:22:37;7.60;99.90
4896;DHT22;2463;49.948;8.472;2024-02-14T04:25:04;7.60;99.90
4896;DHT22;2463;49.948;8.472;2024-02-14T04:27:31;7.60;99.90
4896;DHT22;2463;49.948;8.472;2024-02-14T04:29:57;7.60;99.90
4896;DHT22;2463;49.948;8.472;2024-02-14T04:32:24;7.60;99.90
4896;DHT22;2463;49.948;8.472;2024-02-14T04:34:52;7.60;99.90
4896;DHT22;2463;49.948;8.472;2024-02-14T04:37:18;7.60;99.90
4896;DHT22;2463;49.948;8.472;2024-02-14T04:39:46;7.60;99.90
4896;DHT22;2463;49.948;8.472;2024-02-14T04:42:13;7.60;99.90
4896;DHT22;2463;49.948;8.472;2024-02-14T04:44:39;7.60;99.90
4896;DHT22;2463;49.948;8.472;2024-02-14T04:47:06;7.60;99.90
4896;DHT22;2463;49.948;8.472;2024-02-14T04:49:36;7.50;99.90
4896;DHT22;2463;49.948;8.472;2024-02-14T04:52:04;7.60;99.90
4896;DHT22;2463;49.948;8.472;2024-02-14T04:54:31;7.60;99.90
4896;DHT22;2463;49.948;8.472;2024-02-14T04:56:58;7.60;99.90
4896;DHT22;2463;49.948;8.472;2024-02-14T04:59:28;7.70;99.90
4896;DHT22;2463;49.948;8.472;2024-02-14T05:01:55;7.70;99.90
4896;DHT22;2463;49.948;8.472;2024-02-14T05:04:23;7.70;99.90
4896;DHT22;2463;49.948;8.472;2024-02-14T05:06:50;7.80;99.90
4896;DHT22;2463;49.948;8.472;2024-02-14T05:09:20;7.70;99.90
4896;DHT22;2463;49.948;8.472;2024-02-14T05:11:47;7.70;99.90
4896;DHT22;2463;49.948;8.472;2024-02-14T05:14:13;7.70;99.90
4896;DHT22;2463;49.948;8.472;2024-02-14T05:16:40;7.80;99.90
4896;DHT22;2463;49.948;8.472;2024-02-14T05:19:07;7.80;99.90
4896;DHT22;2463;49.948;8.472;2024-02-14T05:21:34;7.70;99.90
4896;DHT22;2463;49.948;8.472;2024-02-14T05:24:01;7.70;99.90
4896;DHT22;2463;49.948;8.472;2024-02-14T05:26:28;7.70;99.90
4896;DHT22;2463;49.948;8.472;2024-02-14T05:28:55;7.70;99.90
4896;DHT22;2463;49.948;8.472;2024-02-14T05:31:21;7.80;99.90
4896;DHT22;2463;49.948;8.472;2024-02-14T05:33:48;7.70;99.90
4896;DHT22;2463;49.948;8.472;2024-02-14T05:36:15;7.80;99.90
4896;DHT22;2463;49.948;8.472;2024-02-14T05:38:42;7.70;99.90
4896;DHT22;2463;49.948;8.472;2024-02-14T05:41:09;7.70;99.90
4896;DHT22;2463;49.948;8.472;2024-02-14T05:43:35;7.70;99.90
4896;DHT22;2463;49.948;8.472;2024-02-14T05:46:02;7.80;99.90
4896;DHT22;2463;49.948;8.472;2024-02-14T05:48:29;7.80;99.90
4896;DHT22;2463;49.948;8.472;2024-02-14T05:50:56;7.80;99.90
4896;DHT22;2463;49.948;8.472;2024-02-14T05:53:22;7.80;99.90
4896;DHT22;2463;49.948;8.472;2024-02-14T05:55:49;7.90;99.90
4896;DHT22;2463;49.948;8.472;2024-02-14T05:58:16;7.90;99.90
4896;DHT22;2463;49.948;8.472;2024-02-14T06:00:43;8.00;99.90
4896;DHT22;2463;49.948;8.472;2024-02-14T06:03:10;8.00;99.90
4896;DHT22;2463;49.948;8.472;2024-02-14T06:05:36;8.00;99.90
4896;DHT22;2463;49.948;8.472;2024-02-14T06:08:03;8.00;99.90
4896;DHT22;2463;49.948;8.472;2024-02-14T06:10:30;7.90;99.90
4896;DHT22;2463;49.948;8.472;2024-02-14T06:12:57;7.90;99.90
4896;DHT22;2463;49.948;8.472;2024-02-14T06:15:23;8.00;99.90
4896;DHT22;2463;49.948;8.472;2024-02-14T06:17:50;8.00;99.90
4896;DHT22;2463;49.948;8.472;2024-02-14T06:20:17;8.00;99.90
4896;DHT22;2463;49.948;8.472;2024-02-14T06:22:44;8.10;99.90
4896;DHT22;2463;49.948;8.472;2024-02-14T06:25:22;8.10;99.90
4896;DHT22;2463;49.948;8.472;2024-02-14T06:27:49;8.10;99.90
4896;DHT22;2463;49.948;8.472;2024-02-14T06:30:16;8.10;99.90
4896;DHT22;2463;49.948;8.472;2024-02-14T06:32:44;8.00;99.90
4896;DHT22;2463;49.948;8.472;2024-02-14T06:35:10;8.10;99.90
4896;DHT22;2463;49.948;8.472;2024-02-14T06:37:38;8.10;99.90
4896;DHT22;2463;49.948;8.472;2024-02-14T06:40:18;8.10;99.90
4896;DHT22;2463;49.948;8.472;2024-02-14T06:42:44;8.20;99.90
4896;DHT22;2463;49.948;8.472;2024-02-14T06:45:11;8.10;99.90
4896;DHT22;2463;49.948;8.472;2024-02-14T06:47:38;8.10;99.90
4896;DHT22;2463;49.948;8.472;2024-02-14T06:50:05;8.10;99.90
4896;DHT22;2463;49.948;8.472;2024-02-14T06:52:34;8.20;99.90
4896;DHT22;2463;49.948;8.472;2024-02-14T06:55:01;8.20;99.90
4896;DHT22;2463;49.948;8.472;2024-02-14T06:57:30;8.20;99.90
4896;DHT22;2463;49.948;8.472;2024-02-14T06:59:57;8.30;99.90
4896;DHT22;2463;49.948;8.472;2024-02-14T07:02:24;8.30;99.90
4896;DHT22;2463;49.948;8.472;2024-02-14T07:04:54;8.30;99.90
4896;DHT22;2463;49.948;8.472;2024-02-14T07:07:21;8.30;99.90
4896;DHT22;2463;49.948;8.472;2024-02-14T07:09:47;8.30;99.90
4896;DHT22;2463;49.948;8.472;2024-02-14T07:12:14;8.30;99.90
4896;DHT22;2463;49.948;8.472;2024-02-14T07:14:41;8.30;99.90
4896;DHT22;2463;49.948;8.472;2024-02-14T07:17:08;8.30;99.90
4896;DHT22;2463;49.948;8.472;2024-02-14T07:19:35;8.30;99.90
4896;DHT22;2463;49.948;8.472;2024-02-14T07:22:01;8.20;99.90
4896;DHT22;2463;49.948;8.472;2024-02-14T07:24:28;8.30;99.90
4896;DHT22;2463;49.948;8.472;2024-02-14T07:26:55;8.30;99.90
4896;DHT22;2463;49.948;8.472;2024-02-14T07:29:21;8.40;99.90
4896;DHT22;2463;49.948;8.472;2024-02-14T07:31:48;8.40;99.90
4896;DHT22;2463;49.948;8.472;2024-02-14T07:34:15;8.50;99.90
4896;DHT22;2463;49.948;8.472;2024-02-14T07:36:42;8.60;99.90
4896;DHT22;2463;49.948;8.472;2024-02-14T07:39:12;8.60;99.90
4896;DHT22;2463;49.948;8.472;2024-02-14T07:41:39;8.60;99.90
4896;DHT22;2463;49.948;8.472;2024-02-14T07:44:05;8.60;99.90
4896;DHT22;2463;49.948;8.472;2024-02-14T07:46:32;8.60;99.90
4896;DHT22;2463;49.948;8.472;2024-02-14T07:48:59;8.60;99.90
4896;DHT22;2463;49.948;8.472;2024-02-14T07:51:26;8.60;99.90
4896;DHT22;2463;49.948;8.472;2024-02-14T07:53:55;8.60;99.90
4896;DHT22;2463;49.948;8.472;2024-02-14T07:56:22;8.60;99.90
4896;DHT22;2463;49.948;8.472;2024-02-14T07:58:48;8.60;99.90
4896;DHT22;2463;49.948;8.472;2024-02-14T08:01:16;8.70;99.90
4896;DHT22;2463;49.948;8.472;2024-02-14T08:03:43;8.70;99.90
4896;DHT22;2463;49.948;8.472;2024-02-14T08:06:09;8.70;99.90
4896;DHT22;2463;49.948;8.472;2024-02-14T08:08:36;8.70;99.90
4896;DHT22;2463;49.948;8.472;2024-02-14T08:11:03;8.60;99.90
4896;DHT22;2463;49.948;8.472;2024-02-14T08:13:30;8.70;99.90
4896;DHT22;2463;49.948;8.472;2024-02-14T08:15:56;8.70;99.90
4896;DHT22;2463;49.948;8.472;2024-02-14T08:18:24;8.80;99.90
4896;DHT22;2463;49.948;8.472;2024-02-14T08:20:53;8.80;99.90
4896;DHT22;2463;49.948;8.472;2024-02-14T08:23:21;8.80;99.90
4896;DHT22;2463;49.948;8.472;2024-02-14T08:25:47;8.90;99.90
4896;DHT22;2463;49.948;8.472;2024-02-14T08:28:15;8.90;99.90
4896;DHT22;2463;49.948;8.472;2024-02-14T08:30:44;9.00;99.90
4896;DHT22;2463;49.948;8.472;2024-02-14T08:33:11;9.10;99.90
4896;DHT22;2463;49.948;8.472;2024-02-14T08:35:38;9.10;99.90
4896;DHT22;2463;49.948;8.472;2024-02-14T08:38:09;9.20;99.90
4896;DHT22;2463;49.948;8.472;2024-02-14T08:40:36;9.30;99.90
4896;DHT22;2463;49.948;8.472;2024-02-14T08:43:03;9.40;99.90
4896;DHT22;2463;49.948;8.472;2024-02-14T08:45:31;9.40;99.90
4896;DHT22;2463;49.948;8.472;2024-02-14T08:47:58;9.40;99.90
4896;DHT22;2463;49.948;8.472;2024-02-14T08:50:25;9.50;99.90
4896;DHT22;2463;49.948;8.472;2024-02-14T08:52:51;9.40;99.90
4896;DHT22;2463;49.948;8.472;2024-02-14T08:55:18;9.40;99.90
4896;DHT22;2463;49.948;8.472;2024-02-14T08:57:45;9.40;99.90
4896;DHT22;2463;49.948;8.472;2024-02-14T09:00:15;9.40;99.90
4896;DHT22;2463;49.948;8.472;2024-02-14T09:02:46;9.50;99.90
4896;DHT22;2463;49.948;8.472;2024-02-14T09:05:14;9.50;99.90
4896;DHT22;2463;49.948;8.472;2024-02-14T09:07:40;9.60;99.90
4896;DHT22;2463;49.948;8.472;2024-02-14T09:10:08;9.60;99.90
4896;DHT22;2463;49.948;8.472;2024-02-14T09:12:36;9.70;99.90
4896;DHT22;2463;49.948;8.472;2024-02-14T09:15:04;9.70;99.90
4896;DHT22;2463;49.948;8.472;2024-02-14T09:17:31;9.80;99.90
4896;DHT22;2463;49.948;8.472;2024-02-14T09:19:58;9.90;99.90
4896;DHT22;2463;49.948;8.472;2024-02-14T09:22:25;9.80;99.90
4896;DHT22;2463;49.948;8.472;2024-02-14T09:24:52;9.80;99.90
4896;DHT22;2463;49.948;8.472;2024-02-14T09:27:19;9.90;99.90
4896;DHT22;2463;49.948;8.472;2024-02-14T09:29:46;9.90;99.90
4896;DHT22;2463;49.948;8.472;2024-02-14T09:32:13;9.90;99.90
4896;DHT22;2463;49.948;8.472;2024-02-14T09:34:40;9.90;99.90
4896;DHT22;2463;49.948;8.472;2024-02-14T09:37:07;9.90;99.90
4896;DHT22;2463;49.948;8.472;2024-02-14T09:39:33;10.00;99.90
4896;DHT22;2463;49.948;8.472;2024-02-14T09:42:08;10.10;99.90
4896;DHT22;2463;49.948;8.472;2024-02-14T09:44:36;10.10;99.90
4896;DHT22;2463;49.948;8.472;2024-02-14T09:47:05;10.10;99.90
4896;DHT22;2463;49.948;8.472;2024-02-14T09:49:32;10.20;99.90
4896;DHT22;2463;49.948;8.472;2024-02-14T09:52:02;10.30;99.90
4896;DHT22;2463;49.948;8.472;2024-02-14T09:54:31;10.30;99.90
4896;DHT22;2463;49.948;8.472;2024-02-14T09:57:02;10.30;99.90
4896;DHT22;2463;49.948;8.472;2024-02-14T09:59:29;10.40;99.90
4896;DHT22;2463;49.948;8.472;2024-02-14T10:01:56;10.40;99.90
4896;DHT22;2463;49.948;8.472;2024-02-14T10:04:23;10.40;99.90
4896;DHT22;2463;49.948;8.472;2024-02-14T10:06:52;10.50;99.90
4896;DHT22;2463;49.948;8.472;2024-02-14T10:09:21;10.60;99.90
4896;DHT22;2463;49.948;8.472;2024-02-14T10:11:48;10.50;99.90
4896;DHT22;2463;49.948;8.472;2024-02-14T10:14:15;10.60;99.90
4896;DHT22;2463;49.948;8.472;2024-02-14T10:16:42;10.70;99.90
4896;DHT22;2463;49.948;8.472;2024-02-14T10:19:16;10.70;99.90
4896;DHT22;2463;49.948;8.472;2024-02-14T10:21:43;10.70;99.90
4896;DHT22;2463;49.948;8.472;2024-02-14T10:24:11;10.80;99.90
4896;DHT22;2463;49.948;8.472;2024-02-14T10:26:38;10.80;99.90
4896;DHT22;2463;49.948;8.472;2024-02-14T10:29:06;10.80;99.90
4896;DHT22;2463;49.948;8.472;2024-02-14T10:31:34;10.90;99.90
4896;DHT22;2463;49.948;8.472;2024-02-14T10:34:01;10.90;99.90
4896;DHT22;2463;49.948;8.472;2024-02-14T10:36:29;10.90;99.90
4896;DHT22;2463;49.948;8.472;2024-02-14T10:38:58;10.90;99.90
4896;DHT22;2463;49.948;8.472;2024-02-14T10:41:26;10.90;99.90
4896;DHT22;2463;49.948;8.472;2024-02-14T10:43:53;10.80;99.90
4896;DHT22;2463;49.948;8.472;2024-02-14T10:46:20;10.80;99.90
4896;DHT22;2463;49.948;8.472;2024-02-14T10:48:53;10.70;99.90
4896;DHT22;2463;49.948;8.472;2024-02-14T10:51:21;10.70;99.90
4896;DHT22;2463;49.948;8.472;2024-02-14T10:53:49;10.70;99.90
4896;DHT22;2463;49.948;8.472;2024-02-14T10:56:18;10.80;99.90
4896;DHT22;2463;49.948;8.472;2024-02-14T10:58:48;10.90;99.90
4896;DHT22;2463;49.948;8.472;2024-02-14T11:01:15;11.00;99.90
4896;DHT22;2463;49.948;8.472;2024-02-14T11:03:44;11.10;99.90
4896;DHT22;2463;49.948;8.472;2024-02-14T11:06:16;11.20;99.90
4896;DHT22;2463;49.948;8.472;2024-02-14T11:09:03;11.30;99.90
4896;DHT22;2463;49.948;8.472;2024-02-14T11:11:34;11.40;99.90
4896;DHT22;2463;49.948;8.472;2024-02-14T11:14:02;11.40;99.90
4896;DHT22;2463;49.948;8.472;2024-02-14T11:16:31;11.40;99.90
4896;DHT22;2463;49.948;8.472;2024-02-14T11:19:12;11.50;99.90
4896;DHT22;2463;49.948;8.472;2024-02-14T11:21:41;11.50;99.90
4896;DHT22;2463;49.948;8.472;2024-02-14T11:24:12;11.50;99.90
4896;DHT22;2463;49.948;8.472;2024-02-14T11:26:48;11.60;99.90
4896;DHT22;2463;49.948;8.472;2024-02-14T11:29:18;11.70;99.90
4896;DHT22;2463;49.948;8.472;2024-02-14T11:32:00;11.90;99.90
4896;DHT22;2463;49.948;8.472;2024-02-14T11:34:28;12.00;99.90
4896;DHT22;2463;49.948;8.472;2024-02-14T11:37:02;12.30;99.90
4896;DHT22;2463;49.948;8.472;2024-02-14T11:39:33;12.40;99.90
4896;DHT22;2463;49.948;8.472;2024-02-14T11:42:00;12.40;99.90
4896;DHT22;2463;49.948;8.472;2024-02-14T11:44:27;12.50;99.90
4896;DHT22;2463;49.948;8.472;2024-02-14T11:46:54;12.60;99.90
4896;DHT22;2463;49.948;8.472;2024-02-14T11:49:20;12.60;99.90
4896;DHT22;2463;49.948;8.472;2024-02-14T11:51:47;12.60;99.90
4896;DHT22;2463;49.948;8.472;2024-02-14T11:54:14;12.50;99.90
4896;DHT22;2463;49.948;8.472;2024-02-14T11:56:42;12.30;99.90
4896;DHT22;2463;49.948;8.472;2024-02-14T11:59:09;12.30;99.90
4896;DHT22;2463;49.948;8.472;2024-02-14T12:01:38;12.20;99.90
4896;DHT22;2463;49.948;8.472;2024-02-14T12:04:06;12.20;99.90
4896;DHT22;2463;49.948;8.472;2024-02-14T12:06:36;12.10;99.90
4896;DHT22;2463;49.948;8.472;2024-02-14T12:09:05;12.00;99.90
4896;DHT22;2463;49.948;8.472;2024-02-14T12:11:32;11.90;99.90
4896;DHT22;2463;49.948;8.472;2024-02-14T12:14:05;11.90;99.90
4896;DHT22;2463;49.948;8.472;2024-02-14T12:16:34;12.00;99.90
4896;DHT22;2463;49.948;8.472;2024-02-14T12:19:15;12.00;99.90
4896;DHT22;2463;49.948;8.472;2024-02-14T12:21:44;12.00;99.90
4896;DHT22;2463;49.948;8.472;2024-02-14T12:24:11;12.00;99.90
4896;DHT22;2463;49.948;8.472;2024-02-14T12:26:41;12.00;99.90
4896;DHT22;2463;49.948;8.472;2024-02-14T12:29:10;12.10;99.90
4896;DHT22;2463;49.948;8.472;2024-02-14T12:31:37;12.10;99.90
4896;DHT22;2463;49.948;8.472;2024-02-14T12:34:04;12.00;99.90
4896;DHT22;2463;49.948;8.472;2024-02-14T12:36:34;12.00;99.90
4896;DHT22;2463;49.948;8.472;2024-02-14T12:39:02;12.10;99.90
4896;DHT22;2463;49.948;8.472;2024-02-14T12:41:32;12.10;99.90
4896;DHT22;2463;49.948;8.472;2024-02-14T12:44:02;12.10;99.90
4896;DHT22;2463;49.948;8.472;2024-02-14T12:46:28;12.00;99.90
4896;DHT22;2463;49.948;8.472;2024-02-14T12:48:55;12.10;99.90
4896;DHT22;2463;49.948;8.472;2024-02-14T12:51:23;12.10;99.90
4896;DHT22;2463;49.948;8.472;2024-02-14T12:53:54;12.10;99.90
4896;DHT22;2463;49.948;8.472;2024-02-14T12:56:21;12.10;99.90
4896;DHT22;2463;49.948;8.472;2024-02-14T12:58:48;12.20;99.90
4896;DHT22;2463;49.948;8.472;2024-02-14T13:01:15;12.10;99.90
4896;DHT22;2463;49.948;8.472;2024-02-14T13:03:44;12.10;99.90
4896;DHT22;2463;49.948;8.472;2024-02-14T13:06:12;12.10;99.90
4896;DHT22;2463;49.948;8.472;2024-02-14T13:08:40;12.10;99.90
4896;DHT22;2463;49.948;8.472;2024-02-14T13:11:08;12.10;99.90
4896;DHT22;2463;49.948;8.472;2024-02-14T13:13:35;12.10;99.90
4896;DHT22;2463;49.948;8.472;2024-02-14T13:16:02;12.10;99.90
4896;DHT22;2463;49.948;8.472;2024-02-14T13:18:29;12.00;99.90
4896;DHT22;2463;49.948;8.472;2024-02-14T13:20:56;11.90;99.90
4896;DHT22;2463;49.948;8.472;2024-02-14T13:23:26;11.90;99.90
4896;DHT22;2463;49.948;8.472;2024-02-14T13:25:53;11.90;99.90
4896;DHT22;2463;49.948;8.472;2024-02-14T13:28:20;11.80;99.90
4896;DHT22;2463;49.948;8.472;2024-02-14T13:30:46;11.80;99.90
4896;DHT22;2463;49.948;8.472;2024-02-14T13:33:16;11.80;99.90
4896;DHT22;2463;49.948;8.472;2024-02-14T13:35:43;11.80;99.90
4896;DHT22;2463;49.948;8.472;2024-02-14T13:38:10;11.70;99.90
4896;DHT22;2463;49.948;8.472;2024-02-14T13:40:37;11.70;99.90
4896;DHT22;2463;49.948;8.472;2024-02-14T13:43:03;11.70;99.90
4896;DHT22;2463;49.948;8.472;2024-02-14T13:45:44;11.80;99.90
4896;DHT22;2463;49.948;8.472;2024-02-14T13:48:11;11.80;99.90
4896;DHT22;2463;49.948;8.472;2024-02-14T13:50:38;11.80;99.90
4896;DHT22;2463;49.948;8.472;2024-02-14T13:53:06;11.90;99.90
4896;DHT22;2463;49.948;8.472;2024-02-14T13:55:33;11.80;99.90
4896;DHT22;2463;49.948;8.472;2024-02-14T13:58:00;11.90;99.90
4896;DHT22;2463;49.948;8.472;2024-02-14T14:00:26;11.90;99.90
4896;DHT22;2463;49.948;8.472;2024-02-14T14:02:53;11.90;99.90
4896;DHT22;2463;49.948;8.472;2024-02-14T14:05:22;11.90;99.90
4896;DHT22;2463;49.948;8.472;2024-02-14T14:07:48;11.90;99.90
4896;DHT22;2463;49.948;8.472;2024-02-14T14:10:25;11.90;99.90
4896;DHT22;2463;49.948;8.472;2024-02-14T14:12:53;11.90;99.90
4896;DHT22;2463;49.948;8.472;2024-02-14T14:15:19;11.80;99.90
4896;DHT22;2463;49.948;8.472;2024-02-14T14:17:46;11.80;99.90
4896;DHT22;2463;49.948;8.472;2024-02-14T14:20:13;11.80;99.90
4896;DHT22;2463;49.948;8.472;2024-02-14T14:22:40;11.70;99.90
4896;DHT22;2463;49.948;8.472;2024-02-14T14:25:07;11.70;99.90
4896;DHT22;2463;49.948;8.472;2024-02-14T14:27:35;11.70;99.90
4896;DHT22;2463;49.948;8.472;2024-02-14T14:30:01;11.70;99.90
4896;DHT22;2463;49.948;8.472;2024-02-14T14:32:28;11.80;99.90
4896;DHT22;2463;49.948;8.472;2024-02-14T14:34:55;11.80;99.90
4896;DHT22;2463;49.948;8.472;2024-02-14T14:37:22;11.80;99.90
4896;DHT22;2463;49.948;8.472;2024-02-14T14:39:49;11.70;99.90
4896;DHT22;2463;49.948;8.472;2024-02-14T14:42:16;11.80;99.90
4896;DHT22;2463;49.948;8.472;2024-02-14T14:44:44;11.80;99.90
4896;DHT22;2463;49.948;8.472;2024-02-14T14:47:11;11.80;99.90
4896;DHT22;2463;49.948;8.472;2024-02-14T14:49:37;11.70;99.90
4896;DHT22;2463;49.948;8.472;2024-02-14T14:52:05;11.70;99.90
4896;DHT22;2463;49.948;8.472;2024-02-14T14:54:32;11.60;99.90
4896;DHT22;2463;49.948;8.472;2024-02-14T14:56:59;11.70;99.90
4896;DHT22;2463;49.948;8.472;2024-02-14T14:59:27;11.70;99.90
4896;DHT22;2463;49.948;8.472;2024-02-14T15:01:53;11.70;99.90
4896;DHT22;2463;49.948;8.472;2024-02-14T15:04:20;11.70;99.90
4896;DHT22;2463;49.948;8.472;2024-02-14T15:06:47;11.60;99.90
4896;DHT22;2463;49.948;8.472;2024-02-14T15:09:17;11.60;99.90
4896;DHT22;2463;49.948;8.472;2024-02-14T15:11:44;11.50;99.90
4896;DHT22;2463;49.948;8.472;2024-02-14T15:14:10;11.50;99.90
4896;DHT22;2463;49.948;8.472;2024-02-14T15:16:37;11.50;99.90
4896;DHT22;2463;49.948;8.472;2024-02-14T15:19:04;11.50;99.90
4896;DHT22;2463;49.948;8.472;2024-02-14T15:21:31;11.60;99.90
4896;DHT22;2463;49.948;8.472;2024-02-14T15:23:57;11.50;99.90
4896;DHT22;2463;49.948;8.472;2024-02-14T15:26:24;11.50;99.90
4896;DHT22;2463;49.948;8.472;2024-02-14T15:28:51;11.40;99.90
4896;DHT22;2463;49.948;8.472;2024-02-14T15:31:44;11.40;99.90
4896;DHT22;2463;49.948;8.472;2024-02-14T15:34:29;11.50;99.90
4896;DHT22;2463;49.948;8.472;2024-02-14T15:36:57;11.50;99.90
4896;DHT22;2463;49.948;8.472;2024-02-14T15:39:24;11.50;99.90
4896;DHT22;2463;49.948;8.472;2024-02-14T15:41:50;11.40;99.90
4896;DHT22;2463;49.948;8.472;2024-02-14T15:44:17;11.50;99.90
4896;DHT22;2463;49.948;8.472;2024-02-14T15:46:44;11.50;99.90
4896;DHT22;2463;49.948;8.472;2024-02-14T15:49:10;11.50;99.90
4896;DHT22;2463;49.948;8.472;2024-02-14T15:51:38;11.50;99.90
4896;DHT22;2463;49.948;8.472;2024-02-14T15:54:05;11.50;99.90
4896;DHT22;2463;49.948;8.472;2024-02-14T15:56:31;11.60;99.90
4896;DHT22;2463;49.948;8.472;2024-02-14T15:58:58;11.50;99.90
4896;DHT22;2463;49.948;8.472;2024-02-14T16:01:25;11.60;99.90
4896;DHT22;2463;49.948;8.472;2024-02-14T16:03:51;11.50;99.90
4896;DHT22;2463;49.948;8.472;2024-02-14T16:06:18;11.60;99.90
4896;DHT22;2463;49.948;8.472;2024-02-14T16:08:45;11.60;99.90
4896;DHT22;2463;49.948;8.472;2024-02-14T16:11:12;11.50;99.90
4896;DHT22;2463;49.948;8.472;2024-02-14T16:13:38;11.50;99.90
4896;DHT22;2463;49.948;8.472;2024-02-14T16:16:06;11.50;99.90